Time;durP1;ratioP1;P1;durP2;ratioP2;P2;SDS_P1;SDS_P2;PMS_P1;PMS_P2;Temp;Humidity;BMP_temperature;BMP_pressure;BME280_temperature;BME280_humidity;BME280_pressure;Samples;Min_cycle;Max_cycle;Signal;HPM_P1;HPM_P2
2023/04/30 00:01:03;;;;;;;12.65;9.85;;;;;;;8.89;46.58;95993.34;4957008;28;20110;-69
2023/04/30 00:03:28;;;;;;;11.55;9.18;;;;;;;8.84;46.74;95993.00;4956245;28;20416;-69
2023/04/30 00:05:53;;;;;;;15.23;9.00;;;;;;;8.78;46.33;95997.94;4955854;28;20038;-68
2023/04/30 00:08:19;;;;;;;11.82;9.30;;;;;;;8.72;46.90;95995.94;4956034;28;20546;-69
2023/04/30 00:10:45;;;;;;;10.90;9.00;;;;;;;8.67;46.50;95995.56;4957577;28;20050;-69
2023/04/30 00:13:12;;;;;;;13.25;9.80;;;;;;;8.51;46.48;95991.84;4955527;28;20140;-70
2023/04/30 00:15:38;;;;;;;9.53;7.43;;;;;;;8.40;46.49;95992.09;4956808;28;20431;-69
2023/04/30 00:18:05;;;;;;;10.80;8.77;;;;;;;8.26;46.44;95991.63;4956002;28;20276;-69
2023/04/30 00:20:31;;;;;;;12.27;10.17;;;;;;;7.91;47.36;95990.69;4954338;28;20691;-69
2023/04/30 00:22:56;;;;;;;11.30;8.65;;;;;;;7.81;47.32;95982.81;4953273;28;20278;-70
2023/04/30 00:25:23;;;;;;;9.70;7.60;;;;;;;7.73;47.47;95983.56;4955309;28;20288;-69
2023/04/30 00:27:49;;;;;;;13.57;9.77;;;;;;;7.63;47.54;95980.97;4955531;28;20061;-69
2023/04/30 00:30:14;;;;;;;12.23;9.63;;;;;;;7.46;47.62;95982.63;4955373;28;20042;-69
2023/04/30 00:32:39;;;;;;;9.38;7.85;;;;;;;7.33;47.72;95982.13;4952755;28;20070;-69
2023/04/30 00:35:05;;;;;;;11.52;8.65;;;;;;;7.23;48.19;95990.97;4954609;28;20046;-69
2023/04/30 00:37:31;;;;;;;15.13;9.82;;;;;;;7.07;48.38;95988.94;4954935;28;20034;-69
2023/04/30 00:39:56;;;;;;;12.65;9.07;;;;;;;6.94;48.38;95997.22;4957693;28;20035;-69
2023/04/30 00:42:22;;;;;;;11.45;8.05;;;;;;;6.86;48.59;95992.66;4958012;28;20043;-68
2023/04/30 00:44:47;;;;;;;14.52;8.35;;;;;;;6.79;48.66;95990.72;4957928;28;20201;-69
2023/04/30 00:47:13;;;;;;;15.73;9.68;;;;;;;6.71;48.61;95992.31;4958478;28;20046;-69
2023/04/30 00:49:38;;;;;;;12.70;8.77;;;;;;;6.60;49.15;95993.28;4958712;28;20026;-69
2023/04/30 00:52:04;;;;;;;19.60;11.50;;;;;;;6.44;49.29;95987.75;4958576;28;20048;-69
2023/04/30 00:54:29;;;;;;;13.27;9.55;;;;;;;6.36;49.63;95994.56;4940785;28;20039;-69
2023/04/30 00:56:54;;;;;;;15.32;10.73;;;;;;;6.23;49.62;95994.03;4957148;28;20511;-69
2023/04/30 00:59:20;;;;;;;11.90;8.52;;;;;;;6.16;50.38;95995.59;4940285;28;20064;-69
2023/04/30 01:04:20;;;;;;;15.75;10.70;;;;;;;5.99;49.72;96000.59;4927192;29;20097;-62
2023/04/30 01:06:45;;;;;;;14.25;11.13;;;;;;;5.98;49.76;96002.41;4928189;29;20440;-62
2023/04/30 01:09:10;;;;;;;15.18;9.75;;;;;;;5.90;50.16;96001.44;4933809;29;20067;-61
2023/04/30 01:12:06;;;;;;;17.08;9.10;;;;;;;5.80;50.71;95999.63;4917499;29;20082;-61
2023/04/30 01:15:03;;;;;;;13.00;9.55;;;;;;;5.73;50.91;96001.16;4923937;29;20068;-62
2023/04/30 01:17:47;;;;;;;14.35;10.48;;;;;;;5.67;51.01;95999.88;4930253;29;20077;-61
2023/04/30 01:20:12;;;;;;;16.13;11.95;;;;;;;5.63;51.06;95993.22;4928798;29;20117;-62
2023/04/30 01:23:08;;;;;;;14.43;10.23;;;;;;;5.56;51.18;95995.56;4929375;29;20052;-62
2023/04/30 01:25:51;;;;;;;12.27;8.82;;;;;;;5.52;51.07;95990.69;4931658;29;20267;-62
2023/04/30 01:28:19;;;;;;;13.70;9.07;;;;;;;5.48;51.83;95995.44;4927290;29;20101;-62
2023/04/30 01:30:44;;;;;;;9.95;7.45;;;;;;;5.46;52.43;96007.91;4911989;29;20039;-61
2023/04/30 01:33:10;;;;;;;15.10;10.07;;;;;;;5.43;51.49;96003.75;4913305;29;20073;-61
2023/04/30 01:35:52;;;;;;;14.77;10.15;;;;;;;5.34;51.41;95996.66;4924625;29;20157;-62
2023/04/30 01:38:36;;;;;;;11.68;8.93;;;;;;;5.30;52.07;96004.00;4924335;29;20072;-61
2023/04/30 01:41:20;;;;;;;12.68;7.70;;;;;;;5.27;52.32;95995.53;4924189;29;20121;-62
2023/04/30 01:44:13;;;;;;;17.88;11.77;;;;;;;5.25;52.38;95997.44;4909520;29;20597;-62
2023/04/30 01:46:39;;;;;;;9.57;7.55;;;;;;;5.20;52.42;95993.41;4891978;29;20147;-62
2023/04/30 01:49:16;;;;;;;11.05;8.55;;;;;;;5.14;52.65;95991.28;4907231;29;20088;-61
2023/04/30 01:51:42;;;;;;;10.82;8.20;;;;;;;5.17;52.32;95992.84;4926540;29;20056;-61
2023/04/30 01:54:11;;;;;;;12.85;9.27;;;;;;;5.12;53.21;95993.25;4925908;29;20089;-62
2023/04/30 01:56:40;;;;;;;12.88;8.05;;;;;;;5.15;52.37;95998.28;4907118;29;20558;-62
2023/04/30 01:59:06;;;;;;;12.38;9.98;;;;;;;5.11;52.59;95990.75;4898538;29;20117;-62
2023/04/30 02:01:32;;;;;;;12.05;8.88;;;;;;;5.01;52.58;95999.44;4891139;29;20152;-61
2023/04/30 02:03:57;;;;;;;12.15;8.95;;;;;;;4.90;52.89;96000.34;4941907;28;20043;-62
2023/04/30 02:06:30;;;;;;;12.23;8.30;;;;;;;4.87;52.81;95999.78;4940690;28;20553;-61
2023/04/30 02:08:58;;;;;;;11.80;8.38;;;;;;;4.82;52.93;96003.66;4925641;28;20499;-61
2023/04/30 02:11:23;;;;;;;10.68;7.97;;;;;;;4.90;53.30;96007.44;4927576;28;20518;-62
2023/04/30 02:13:49;;;;;;;10.88;8.75;;;;;;;4.92;52.90;96000.22;4947874;28;20082;-61
2023/04/30 02:16:15;;;;;;;13.07;8.48;;;;;;;4.89;52.65;96008.41;4952784;28;20077;-62
2023/04/30 02:18:41;;;;;;;11.13;8.70;;;;;;;4.86;53.05;96008.69;4942160;28;20350;-61
2023/04/30 02:21:06;;;;;;;12.35;7.50;;;;;;;4.86;53.11;96016.59;4955765;28;20075;-62
2023/04/30 02:23:32;;;;;;;14.30;9.98;;;;;;;4.73;52.06;96008.91;4950769;28;20240;-61
2023/04/30 02:26:00;;;;;;;13.88;9.68;;;;;;;4.71;52.54;96009.88;4945208;28;20072;-62
2023/04/30 02:28:25;;;;;;;14.48;9.65;;;;;;;4.69;53.14;96021.50;4945011;28;20757;-62
2023/04/30 02:30:51;;;;;;;13.90;9.18;;;;;;;4.74;52.97;96013.19;4946008;28;20107;-62
2023/04/30 02:33:16;;;;;;;13.25;7.88;;;;;;;4.74;52.95;96023.75;4944304;28;20068;-62
2023/04/30 02:35:41;;;;;;;12.30;8.30;;;;;;;4.70;53.68;96016.09;4945951;28;20459;-61
2023/04/30 02:38:07;;;;;;;14.15;8.75;;;;;;;4.69;53.06;96017.06;4944159;28;20076;-62
2023/04/30 02:40:32;;;;;;;11.38;7.53;;;;;;;4.67;53.16;96024.28;4949005;28;20132;-62
2023/04/30 02:43:00;;;;;;;12.50;9.18;;;;;;;4.65;52.27;96014.81;4945212;28;20049;-61
2023/04/30 02:45:25;;;;;;;10.65;7.65;;;;;;;4.54;52.90;96013.09;4948192;28;20038;-62
2023/04/30 02:47:50;;;;;;;14.45;9.50;;;;;;;4.55;52.39;96017.41;4942892;28;20044;-62
2023/04/30 02:50:16;;;;;;;8.43;6.40;;;;;;;4.56;53.22;96019.91;4948288;28;20083;-62
2023/04/30 02:52:43;;;;;;;10.10;7.28;;;;;;;4.60;53.30;96017.00;4945637;28;20074;-62
2023/04/30 02:55:08;;;;;;;11.38;8.05;;;;;;;4.50;53.37;96016.97;4946060;28;20076;-61
2023/04/30 02:57:34;;;;;;;13.55;8.88;;;;;;;4.38;52.94;96017.03;4942519;28;20310;-62
2023/04/30 02:59:59;;;;;;;11.48;7.50;;;;;;;4.42;53.56;96015.81;4949288;28;20045;-62
2023/04/30 03:02:25;;;;;;;11.63;9.00;;;;;;;4.40;53.62;96016.91;4950502;28;20114;-62
2023/04/30 03:04:50;;;;;;;13.38;9.20;;;;;;;4.39;52.92;96016.06;4946588;28;20084;-61
2023/04/30 03:07:15;;;;;;;9.77;7.07;;;;;;;4.37;53.39;96017.16;4946117;28;20521;-62
2023/04/30 03:09:42;;;;;;;11.38;7.20;;;;;;;4.35;53.42;96012.00;4945945;28;20073;-61
2023/04/30 03:12:07;;;;;;;12.98;8.07;;;;;;;4.36;53.93;96018.97;4945823;28;20056;-62
2023/04/30 03:14:32;;;;;;;11.85;8.68;;;;;;;4.39;53.56;96018.69;4953871;28;20072;-62
2023/04/30 03:16:58;;;;;;;12.38;9.18;;;;;;;4.38;53.28;96011.75;4947366;28;20177;-61
2023/04/30 03:19:24;;;;;;;14.65;10.20;;;;;;;4.36;52.82;96012.84;4950935;28;20039;-62
2023/04/30 03:21:53;;;;;;;12.88;9.10;;;;;;;4.29;52.95;96007.28;4945609;28;20885;-61
2023/04/30 03:24:19;;;;;;;15.82;9.50;;;;;;;4.27;53.38;96015.31;4947034;28;20046;-62
2023/04/30 03:26:45;;;;;;;12.82;9.20;;;;;;;4.25;53.59;96013.75;4957632;28;20055;-61
2023/04/30 03:29:10;;;;;;;13.63;9.90;;;;;;;4.18;52.71;96022.16;4956438;28;20073;-62
2023/04/30 03:31:35;;;;;;;11.38;7.60;;;;;;;4.22;53.62;96019.28;4959834;28;20055;-62
2023/04/30 03:34:01;;;;;;;12.10;9.05;;;;;;;4.14;53.55;96018.13;4952490;28;20082;-61
2023/04/30 03:36:26;;;;;;;11.98;6.97;;;;;;;4.10;54.22;96013.22;4944677;28;20814;-62
2023/04/30 03:38:52;;;;;;;10.82;7.85;;;;;;;4.08;53.45;96018.63;4929927;28;20052;-62
2023/04/30 03:41:17;;;;;;;12.80;9.38;;;;;;;3.99;51.88;96012.34;4945592;28;20269;-61
2023/04/30 03:43:43;;;;;;;11.75;7.90;;;;;;;3.97;53.52;96010.75;4947465;28;20043;-61
2023/04/30 03:46:08;;;;;;;11.52;8.35;;;;;;;3.92;52.86;96004.06;4945199;28;20106;-61
2023/04/30 03:48:34;;;;;;;13.25;7.63;;;;;;;4.03;53.81;96007.63;4944982;28;20074;-61
2023/04/30 03:50:59;;;;;;;13.38;9.80;;;;;;;4.02;53.54;96006.78;4944767;28;20047;-62
2023/04/30 03:53:25;;;;;;;13.63;9.13;;;;;;;4.01;54.26;96010.38;4945271;28;20074;-63
2023/04/30 03:55:50;;;;;;;14.05;9.32;;;;;;;4.02;53.65;96017.31;4946572;28;20067;-62
2023/04/30 03:58:16;;;;;;;13.82;10.40;;;;;;;4.09;53.49;96017.69;4931131;28;20278;-63
2023/04/30 04:00:41;;;;;;;15.60;9.77;;;;;;;4.02;53.79;96011.25;4928310;28;20076;-63
2023/04/30 04:03:07;;;;;;;14.63;10.13;;;;;;;3.83;53.69;96009.25;4930624;28;20469;-63
2023/04/30 04:05:33;;;;;;;10.30;7.32;;;;;;;3.91;54.52;96009.50;4945500;28;20188;-63
2023/04/30 04:07:59;;;;;;;12.38;7.85;;;;;;;4.01;54.08;96012.22;4947949;28;20131;-62
2023/04/30 04:10:24;;;;;;;13.18;8.30;;;;;;;4.10;54.79;96010.59;4948772;28;20075;-62
2023/04/30 04:12:49;;;;;;;12.00;9.10;;;;;;;4.14;54.21;96014.63;4946044;28;20079;-62
2023/04/30 04:15:15;;;;;;;11.70;8.65;;;;;;;4.20;53.92;96011.50;4948585;28;20075;-63
2023/04/30 04:17:40;;;;;;;14.90;9.40;;;;;;;4.07;53.78;96022.22;4932641;28;20077;-63
2023/04/30 04:20:07;;;;;;;11.25;7.97;;;;;;;4.11;53.88;96018.38;4949967;28;20053;-62
2023/04/30 04:22:32;;;;;;;12.00;9.07;;;;;;;4.17;52.40;96023.16;4953063;28;20625;-63
2023/04/30 04:24:57;;;;;;;12.27;8.88;;;;;;;4.10;52.37;96021.97;4946889;28;20077;-63
2023/04/30 04:27:24;;;;;;;14.88;9.82;;;;;;;4.02;53.22;96013.88;4953762;28;20059;-62
2023/04/30 04:29:50;;;;;;;14.20;9.13;;;;;;;4.07;52.93;96019.59;4952800;28;20246;-63
2023/04/30 04:32:15;;;;;;;12.43;8.10;;;;;;;4.15;54.20;96022.41;4959021;28;20510;-63
2023/04/30 04:34:41;;;;;;;12.65;8.40;;;;;;;4.15;53.47;96019.78;4949367;28;20119;-62
2023/04/30 04:37:07;;;;;;;12.93;8.75;;;;;;;4.25;53.44;96021.66;4949725;28;20188;-63
2023/04/30 04:39:32;;;;;;;11.07;8.30;;;;;;;4.32;53.06;96021.00;4944128;28;20427;-62
2023/04/30 04:41:58;;;;;;;10.40;7.20;;;;;;;4.32;53.70;96014.94;4945202;28;20063;-63
2023/04/30 04:44:23;;;;;;;10.02;6.93;;;;;;;4.47;53.27;96019.84;4944958;28;20472;-63
2023/04/30 04:46:52;;;;;;;8.10;6.32;;;;;;;4.56;52.76;96019.09;4947642;28;20034;-62
2023/04/30 04:49:18;;;;;;;9.55;5.95;;;;;;;4.61;53.58;96019.53;4947248;28;20715;-62
2023/04/30 04:51:43;;;;;;;14.30;8.15;;;;;;;4.64;51.84;96023.69;4946407;28;20044;-63
2023/04/30 04:54:09;;;;;;;8.93;6.20;;;;;;;4.74;53.54;96029.88;4946078;28;20080;-63
2023/04/30 04:56:34;;;;;;;7.20;5.40;;;;;;;4.85;53.59;96021.03;4949161;28;20073;-62
2023/04/30 04:58:59;;;;;;;9.15;5.75;;;;;;;4.95;53.48;96019.28;4944506;28;20052;-62
2023/04/30 05:01:25;;;;;;;8.68;5.90;;;;;;;5.00;52.81;96034.69;4929911;28;20650;-63
2023/04/30 05:03:52;;;;;;;9.40;6.68;;;;;;;5.15;52.31;96029.09;4928037;28;20082;-63
2023/04/30 05:06:17;;;;;;;8.13;5.75;;;;;;;5.27;52.19;96028.03;4943467;28;20065;-63
2023/04/30 05:08:46;;;;;;;9.70;6.55;;;;;;;5.41;52.40;96023.34;4944238;28;20462;-63
2023/04/30 05:11:11;;;;;;;12.95;7.35;;;;;;;5.47;52.14;96028.91;4944535;28;20695;-62
2023/04/30 05:13:37;;;;;;;9.48;6.10;;;;;;;5.60;52.15;96020.75;4944155;28;20119;-62
2023/04/30 05:16:02;;;;;;;7.63;5.38;;;;;;;5.66;52.48;96024.66;4943014;28;20056;-63
2023/04/30 05:18:28;;;;;;;8.57;6.15;;;;;;;5.72;51.62;96024.06;4942960;28;20081;-62
2023/04/30 05:20:53;;;;;;;8.82;5.20;;;;;;;5.84;51.69;96026.59;4942435;28;20068;-62
2023/04/30 05:23:18;;;;;;;9.05;5.10;;;;;;;6.07;51.34;96018.41;4944992;28;20237;-63
2023/04/30 05:25:44;;;;;;;10.40;6.22;;;;;;;6.17;50.85;96026.31;4943001;28;20035;-63
2023/04/30 05:28:10;;;;;;;8.90;5.57;;;;;;;6.31;51.10;96027.69;4943731;28;20049;-62
2023/04/30 05:30:35;;;;;;;7.05;4.95;;;;;;;6.42;50.56;96029.38;4943921;28;20035;-63
2023/04/30 05:33:01;;;;;;;8.05;5.60;;;;;;;6.54;50.76;96027.44;4943884;28;20080;-63
2023/04/30 05:35:26;;;;;;;11.43;7.47;;;;;;;6.67;49.82;96025.31;4943611;28;20041;-63
2023/04/30 05:37:52;;;;;;;8.75;5.38;;;;;;;6.77;50.16;96033.25;4946571;28;20043;-62
2023/04/30 05:40:17;;;;;;;8.43;5.88;;;;;;;6.93;49.75;96029.97;4943082;28;20208;-62
2023/04/30 05:42:43;;;;;;;7.38;5.35;;;;;;;7.12;49.37;96033.53;4942505;28;20752;-63
2023/04/30 05:45:11;;;;;;;8.18;5.53;;;;;;;7.24;49.44;96035.00;4954832;28;20084;-63
2023/04/30 05:47:36;;;;;;;6.70;5.20;;;;;;;7.37;48.85;96029.38;4955368;28;20042;-63
2023/04/30 05:50:02;;;;;;;7.95;5.38;;;;;;;7.46;48.79;96032.09;4956215;28;20031;-63
2023/04/30 05:52:27;;;;;;;7.68;5.30;;;;;;;7.62;48.28;96036.75;4948853;28;20467;-63
2023/04/30 05:54:52;;;;;;;8.48;5.22;;;;;;;7.74;48.48;96024.97;4943680;28;20562;-63
2023/04/30 05:57:18;;;;;;;8.93;6.05;;;;;;;7.93;48.16;96033.81;4943044;28;20042;-63
2023/04/30 05:59:43;;;;;;;6.65;4.65;;;;;;;8.08;47.45;96039.41;4945290;28;20039;-63
2023/04/30 06:02:09;;;;;;;9.43;5.68;;;;;;;8.22;47.26;96031.88;4942405;28;20678;-63
2023/04/30 06:04:37;;;;;;;7.85;4.97;;;;;;;8.33;47.28;96047.56;4942943;28;20043;-63
2023/04/30 06:07:02;;;;;;;10.13;5.90;;;;;;;8.43;46.76;96043.00;4945927;28;20027;-63
2023/04/30 06:09:28;;;;;;;9.65;5.90;;;;;;;8.65;46.93;96040.84;4947550;28;20238;-63
2023/04/30 06:11:54;;;;;;;8.63;6.35;;;;;;;8.76;46.57;96045.06;4947574;28;20058;-63
2023/04/30 06:14:21;;;;;;;9.10;6.00;;;;;;;8.87;46.28;96040.50;4931827;28;20050;-63
2023/04/30 06:16:47;;;;;;;6.68;4.93;;;;;;;8.90;46.00;96037.50;4944415;28;20714;-63
2023/04/30 06:19:12;;;;;;;10.27;6.00;;;;;;;9.05;45.37;96040.47;4943209;28;20034;-63
2023/04/30 06:21:38;;;;;;;8.50;6.00;;;;;;;9.18;44.82;96034.72;4952369;28;20088;-63
2023/04/30 06:24:03;;;;;;;9.52;5.72;;;;;;;9.33;44.94;96041.09;4948067;28;20058;-63
2023/04/30 06:26:29;;;;;;;7.28;5.22;;;;;;;9.43;44.45;96040.13;4947060;28;20039;-63
2023/04/30 06:28:55;;;;;;;10.98;5.78;;;;;;;9.54;44.05;96045.16;4944724;28;20078;-63
2023/04/30 06:31:20;;;;;;;9.00;5.78;;;;;;;9.58;44.05;96045.66;4933623;28;20165;-63
2023/04/30 06:33:46;;;;;;;6.80;4.60;;;;;;;9.66;43.76;96050.16;4922577;28;20043;-64
2023/04/30 06:36:12;;;;;;;9.13;5.47;;;;;;;9.92;43.20;96043.91;4945831;28;20042;-63
2023/04/30 06:38:37;;;;;;;7.78;4.97;;;;;;;9.92;43.25;96042.09;4943137;28;20073;-64
2023/04/30 06:41:02;;;;;;;6.90;5.35;;;;;;;9.97;42.61;96042.41;4943181;28;20056;-63
2023/04/30 06:43:28;;;;;;;8.98;5.35;;;;;;;10.22;42.57;96042.50;4944750;28;20616;-63
2023/04/30 06:45:53;;;;;;;9.05;4.47;;;;;;;10.26;42.39;96044.84;4941630;28;20451;-63
2023/04/30 06:48:19;;;;;;;6.43;4.55;;;;;;;10.41;42.13;96034.34;4942018;28;20035;-63
2023/04/30 06:50:45;;;;;;;8.52;4.88;;;;;;;10.49;41.94;96040.50;4946381;28;20028;-63
2023/04/30 06:53:11;;;;;;;5.35;4.15;;;;;;;10.43;42.23;96040.31;4924480;28;20039;-63
2023/04/30 06:55:36;;;;;;;6.10;4.22;;;;;;;10.53;42.09;96040.16;4923268;28;20033;-63
2023/04/30 06:58:02;;;;;;;7.45;5.28;;;;;;;10.71;41.13;96038.13;4927936;28;20364;-63
2023/04/30 07:00:27;;;;;;;9.20;4.60;;;;;;;10.91;40.16;96044.94;4944134;28;20102;-63
2023/04/30 07:02:53;;;;;;;7.38;4.43;;;;;;;10.94;39.69;96036.59;4949388;28;20082;-64
2023/04/30 07:05:18;;;;;;;5.35;4.00;;;;;;;10.95;40.41;96038.28;4941230;28;20051;-63
2023/04/30 07:07:43;;;;;;;5.63;3.80;;;;;;;11.15;39.68;96037.94;4948703;28;20458;-63
2023/04/30 07:10:09;;;;;;;8.60;4.68;;;;;;;11.09;39.53;96039.44;4949866;28;20046;-63
2023/04/30 07:12:34;;;;;;;5.63;4.22;;;;;;;11.50;38.97;96038.47;4947005;28;20075;-63
2023/04/30 07:15:00;;;;;;;6.82;4.70;;;;;;;11.64;38.73;96036.91;4944131;28;20418;-63
2023/04/30 07:17:25;;;;;;;5.78;4.00;;;;;;;11.83;38.63;96032.94;4942333;28;20396;-64
2023/04/30 07:19:51;;;;;;;8.95;4.10;;;;;;;11.98;38.57;96038.38;4948692;28;20049;-62
2023/04/30 07:22:16;;;;;;;10.93;6.55;;;;;;;11.73;37.85;96035.03;4948186;28;20034;-63
2023/04/30 07:24:42;;;;;;;8.55;3.65;;;;;;;12.02;37.46;96038.84;4947744;28;20038;-62
2023/04/30 07:27:07;;;;;;;4.68;3.05;;;;;;;12.34;36.81;96042.31;4944437;28;20078;-62
2023/04/30 07:29:34;;;;;;;3.65;2.95;;;;;;;12.44;36.47;96041.25;4946810;28;20039;-63
2023/04/30 07:31:59;;;;;;;5.03;3.20;;;;;;;12.36;36.15;96042.13;4946084;28;20415;-64
2023/04/30 07:34:25;;;;;;;5.53;3.60;;;;;;;12.52;35.48;96042.00;4946645;28;20041;-64
2023/04/30 07:36:51;;;;;;;5.07;3.75;;;;;;;12.72;35.97;96048.69;4950273;28;20035;-63
2023/04/30 07:39:19;;;;;;;5.82;3.83;;;;;;;12.66;36.03;96045.75;4957236;28;20396;-63
2023/04/30 07:41:44;;;;;;;5.70;3.83;;;;;;;12.88;36.20;96037.84;4949741;28;20034;-63
2023/04/30 07:44:11;;;;;;;5.45;2.85;;;;;;;13.10;35.39;96038.00;4951528;28;20037;-65
2023/04/30 07:46:36;;;;;;;5.30;3.60;;;;;;;13.16;34.81;96037.22;4945813;28;20015;-63
2023/04/30 07:49:02;;;;;;;6.18;4.05;;;;;;;13.29;34.82;96041.09;4946571;28;20373;-63
2023/04/30 07:51:28;;;;;;;4.90;3.45;;;;;;;13.17;35.14;96041.59;4951537;28;20035;-63
2023/04/30 07:53:54;;;;;;;3.55;2.65;;;;;;;13.37;34.61;96046.38;4953611;28;20451;-63
2023/04/30 07:56:20;;;;;;;6.35;4.18;;;;;;;13.43;33.33;96045.63;4952392;28;20121;-64
2023/04/30 07:58:46;;;;;;;7.13;4.70;;;;;;;13.28;33.83;96045.63;4933395;28;20031;-64
2023/04/30 08:01:11;;;;;;;7.72;3.13;;;;;;;13.61;33.41;96044.41;4951963;28;20086;-64
2023/04/30 08:03:36;;;;;;;3.50;2.63;;;;;;;13.98;33.92;96041.78;4953368;28;20047;-63
2023/04/30 08:06:02;;;;;;;5.30;3.95;;;;;;;14.00;31.67;96046.94;4949918;28;20031;-63
2023/04/30 08:08:28;;;;;;;3.67;2.00;;;;;;;14.21;31.35;96041.59;4953146;28;20475;-63
2023/04/30 08:10:53;;;;;;;2.42;1.90;;;;;;;14.41;31.70;96048.16;4947000;28;20404;-63
2023/04/30 08:13:19;;;;;;;3.67;2.80;;;;;;;14.08;31.99;96044.94;4947347;28;20085;-63
2023/04/30 08:15:45;;;;;;;4.07;3.10;;;;;;;14.22;30.02;96047.78;4949148;28;20031;-64
2023/04/30 08:18:10;;;;;;;3.83;3.10;;;;;;;14.34;30.63;96050.75;4948912;28;20121;-63
2023/04/30 08:20:35;;;;;;;2.60;2.40;;;;;;;13.97;31.38;96047.31;4949344;28;20039;-63
2023/04/30 08:23:01;;;;;;;2.10;1.90;;;;;;;14.37;30.34;96055.75;4950383;28;20506;-63
2023/04/30 08:25:26;;;;;;;2.75;1.80;;;;;;;14.83;31.07;96045.66;4950073;28;20035;-63
2023/04/30 08:27:52;;;;;;;3.60;2.60;;;;;;;14.97;30.78;96049.25;4945916;28;20038;-63
2023/04/30 08:30:17;;;;;;;1.80;1.38;;;;;;;14.98;31.17;96045.53;4943782;28;20071;-64
2023/04/30 08:32:43;;;;;;;3.42;2.65;;;;;;;15.08;30.08;96046.03;4946233;28;20031;-64
2023/04/30 08:35:09;;;;;;;3.38;2.95;;;;;;;15.11;29.17;96047.50;4929532;28;20408;-63
2023/04/30 08:37:34;;;;;;;2.85;1.70;;;;;;;15.10;29.55;96041.28;4946261;28;20141;-64
2023/04/30 08:40:00;;;;;;;4.60;2.83;;;;;;;15.20;30.20;96045.50;4947126;28;20291;-63
2023/04/30 08:42:32;;;;;;;2.78;2.38;;;;;;;15.32;30.22;96051.94;4956554;28;20265;-63
2023/04/30 08:44:59;;;;;;;4.80;3.33;;;;;;;15.32;29.55;96057.31;4943121;28;20671;-63
2023/04/30 08:47:24;;;;;;;5.32;3.90;;;;;;;15.21;30.72;96055.19;4931451;28;20058;-63
2023/04/30 08:49:50;;;;;;;3.95;2.97;;;;;;;15.47;29.15;96062.53;4947608;28;20049;-64
2023/04/30 08:52:16;;;;;;;2.42;2.13;;;;;;;15.60;29.67;96052.94;4952568;28;20070;-64
2023/04/30 08:54:41;;;;;;;2.78;1.92;;;;;;;15.81;27.33;96051.97;4921085;28;20034;-64
2023/04/30 08:57:07;;;;;;;1.20;1.08;;;;;;;16.08;27.27;96049.38;4919257;28;20512;-64
2023/04/30 08:59:32;;;;;;;1.58;1.23;;;;;;;16.22;26.07;96044.06;4945810;28;20268;-63
2023/04/30 09:01:59;;;;;;;2.55;2.35;;;;;;;15.98;26.33;96047.09;4928117;28;20039;-64
2023/04/30 09:04:25;;;;;;;2.63;2.33;;;;;;;16.17;27.74;96057.25;4943937;28;20034;-64
2023/04/30 09:06:57;;;;;;;1.40;1.30;;;;;;;16.44;26.16;96058.16;4946427;28;20299;-64
2023/04/30 09:09:29;;;;;;;1.80;1.30;;;;;;;16.60;25.85;96051.56;4944166;28;20059;-63
2023/04/30 09:12:14;;;;;;;1.38;1.10;;;;;;;16.85;27.03;96052.78;4949217;28;20547;-65
2023/04/30 09:14:40;;;;;;;2.92;2.22;;;;;;;16.95;27.08;96055.06;4948161;28;20542;-64
2023/04/30 09:17:06;;;;;;;1.73;1.55;;;;;;;17.00;25.03;96060.66;4930848;28;20034;-64
2023/04/30 09:19:31;;;;;;;2.53;2.10;;;;;;;17.09;25.80;96054.03;4948182;28;20058;-64
2023/04/30 09:21:56;;;;;;;2.65;1.90;;;;;;;17.25;25.78;96047.41;4948035;28;20042;-64
2023/04/30 09:24:22;;;;;;;3.13;2.50;;;;;;;17.23;25.95;96046.78;4944412;28;20027;-64
2023/04/30 09:26:48;;;;;;;3.05;2.35;;;;;;;17.10;25.80;96044.91;4946867;28;20031;-64
2023/04/30 09:29:13;;;;;;;2.70;2.35;;;;;;;17.07;25.50;96047.19;4925900;28;20412;-64
2023/04/30 09:31:44;;;;;;;1.30;1.20;;;;;;;17.22;24.74;96037.06;4930975;28;20039;-64
2023/04/30 09:34:10;;;;;;;2.38;1.75;;;;;;;17.35;27.00;96044.28;4944761;28;20027;-64
2023/04/30 09:36:35;;;;;;;4.00;2.70;;;;;;;17.24;26.69;96042.25;4945326;28;20050;-64
2023/04/30 09:39:12;;;;;;;2.65;2.08;;;;;;;17.37;25.87;96046.75;4943625;28;20413;-64
2023/04/30 09:41:37;;;;;;;4.03;2.50;;;;;;;17.44;26.58;96044.84;4947629;28;20039;-64
2023/04/30 09:44:03;;;;;;;2.28;1.40;;;;;;;17.20;26.29;96033.75;4946015;28;20604;-65
2023/04/30 09:46:33;;;;;;;4.47;2.63;;;;;;;17.21;27.31;96034.59;4911311;28;20097;-65
2023/04/30 09:49:00;;;;;;;4.30;3.17;;;;;;;17.44;26.19;96041.34;4946011;28;20043;-65
2023/04/30 09:51:26;;;;;;;2.80;2.60;;;;;;;17.06;26.73;96032.91;4952207;28;20579;-65
2023/04/30 09:53:51;;;;;;;1.90;1.52;;;;;;;17.68;26.01;96031.75;4956235;28;20038;-64
2023/04/30 09:56:22;;;;;;;2.80;1.50;;;;;;;17.95;26.46;96022.75;4954651;28;20341;-65
2023/04/30 09:58:52;;;;;;;1.75;1.60;;;;;;;18.33;25.89;96021.91;4930871;28;20034;-64
2023/04/30 10:01:18;;;;;;;2.15;1.65;;;;;;;18.51;25.55;96013.06;4948129;28;20511;-64
2023/04/30 10:03:44;;;;;;;1.95;1.60;;;;;;;18.63;24.89;96018.56;4934012;28;20199;-64
2023/04/30 10:06:15;;;;;;;2.35;2.15;;;;;;;18.82;25.41;96016.75;4926272;28;20540;-64
2023/04/30 10:08:46;;;;;;;2.33;2.00;;;;;;;19.06;24.43;96016.13;4930237;28;20523;-64
2023/04/30 10:11:16;;;;;;;3.05;2.15;;;;;;;18.98;25.17;96016.41;4946614;28;20436;-64
2023/04/30 10:13:46;;;;;;;1.50;1.40;;;;;;;19.21;24.11;96013.06;4928454;28;20122;-65
2023/04/30 10:16:17;;;;;;;1.67;1.23;;;;;;;19.28;24.24;96008.44;4948884;28;20085;-64
2023/04/30 10:18:42;;;;;;;3.33;2.15;;;;;;;19.20;24.82;95996.03;4911954;28;20043;-64
2023/04/30 10:21:12;;;;;;;2.05;1.75;;;;;;;19.11;24.19;96002.81;4931129;28;22675;-64
2023/04/30 10:23:42;;;;;;;2.85;1.40;;;;;;;19.51;23.87;95998.03;4934608;28;20027;-64
2023/04/30 10:26:11;;;;;;;3.30;2.40;;;;;;;19.19;23.98;95998.97;4942555;28;20551;-65
2023/04/30 10:28:37;;;;;;;1.60;1.50;;;;;;;19.44;23.68;96003.47;4927666;28;20041;-65
2023/04/30 10:31:03;;;;;;;2.60;2.03;;;;;;;19.64;23.83;96002.44;4932378;28;20031;-64
2023/04/30 10:33:53;;;;;;;1.42;1.33;;;;;;;19.82;24.34;95991.59;4909599;28;20035;-65
2023/04/30 10:36:29;;;;;;;2.72;2.05;;;;;;;19.42;24.11;95997.50;4947497;28;20321;-64
2023/04/30 10:38:55;;;;;;;1.40;1.30;;;;;;;19.92;24.80;95995.63;4931062;28;20026;-64
2023/04/30 10:41:21;;;;;;;1.00;1.00;;;;;;;20.23;25.64;95999.97;4940185;28;20434;-65
2023/04/30 10:43:47;;;;;;;1.52;1.40;;;;;;;20.34;22.96;95995.69;4937084;28;20034;-64
2023/04/30 10:46:21;;;;;;;2.75;1.70;;;;;;;19.72;23.70;95991.31;4944566;28;20039;-64
2023/04/30 10:48:47;;;;;;;1.25;1.15;;;;;;;20.33;23.98;95991.31;4928844;28;20046;-64
2023/04/30 10:51:13;;;;;;;1.90;1.33;;;;;;;20.59;23.02;95988.41;4946789;28;20043;-64
2023/04/30 10:53:39;;;;;;;1.85;1.58;;;;;;;20.59;22.58;95983.81;4924669;28;20582;-64
2023/04/30 10:56:07;;;;;;;1.35;0.90;;;;;;;20.52;22.75;95972.28;4929099;28;20086;-64
2023/04/30 10:58:37;;;;;;;2.40;1.15;;;;;;;20.37;23.68;95975.47;4946224;28;20035;-65
2023/04/30 11:01:10;;;;;;;1.75;1.40;;;;;;;20.41;22.31;95970.41;4931552;28;20379;-65
2023/04/30 11:03:36;;;;;;;1.63;0.95;;;;;;;19.99;23.00;95973.94;4931783;28;20059;-65
2023/04/30 11:06:07;;;;;;;1.85;1.73;;;;;;;20.29;23.56;95973.91;4922449;29;20031;-64
2023/04/30 11:08:33;;;;;;;1.17;1.15;;;;;;;20.61;22.52;95973.59;4925472;29;20074;-64
2023/04/30 11:11:03;;;;;;;1.20;1.10;;;;;;;20.73;22.61;95962.81;4925649;29;20032;-64
2023/04/30 11:13:38;;;;;;;0.90;0.90;;;;;;;20.86;22.89;95966.34;4923435;29;20122;-65
2023/04/30 11:16:04;;;;;;;1.48;1.30;;;;;;;21.19;22.70;95964.91;4924711;29;20134;-65
2023/04/30 11:18:30;;;;;;;1.58;1.00;;;;;;;21.44;21.91;95960.25;4894260;29;20400;-64
2023/04/30 11:20:56;;;;;;;1.42;1.25;;;;;;;21.58;22.56;95961.63;4925682;29;20093;-64
2023/04/30 11:23:22;;;;;;;1.50;1.30;;;;;;;21.76;21.51;95957.13;4927890;28;20061;-64
2023/04/30 11:25:47;;;;;;;2.00;1.35;;;;;;;21.70;21.63;95952.66;4929694;29;20182;-65
2023/04/30 11:28:16;;;;;;;0.80;0.80;;;;;;;22.13;21.70;95954.00;4930907;29;20039;-65
2023/04/30 11:30:52;;;;;;;1.77;0.85;;;;;;;21.81;21.68;95949.06;4926773;29;20517;-64
2023/04/30 11:33:17;;;;;;;1.67;1.58;;;;;;;21.98;21.65;95943.72;4929566;29;20101;-64
2023/04/30 11:35:43;;;;;;;2.72;1.35;;;;;;;22.31;21.18;95946.72;4912156;29;20368;-64